Time;durP1;ratioP1;P1;durP2;ratioP2;P2;SDS_P1;SDS_P2;PMS_P1;PMS_P2;Temp;Humidity;BMP_temperature;BMP_pressure;BME280_temperature;BME280_humidity;BME280_pressure;Samples;Min_cycle;Max_cycle;Signal;HPM_P1;HPM_P2
2024/01/15 00:01:53;;;;;;;3.85;0.57;;;1.90;99.90;;;;;;5026410;28;20064;-73
2024/01/15 00:04:19;;;;;;;3.17;0.65;;;1.90;99.90;;;;;;5011694;28;20389;-75
2024/01/15 00:06:44;;;;;;;8.05;0.85;;;1.90;99.90;;;;;;5013547;28;20040;-74
2024/01/15 00:09:10;;;;;;;6.10;0.65;;;1.80;99.90;;;;;;5038588;28;20180;-71
2024/01/15 00:11:35;;;;;;;5.53;0.65;;;1.80;99.90;;;;;;5012045;28;20046;-73
2024/01/15 00:14:01;;;;;;;7.10;1.27;;;1.70;99.90;;;;;;5014310;28;20036;-74
2024/01/15 00:16:26;;;;;;;4.25;0.85;;;1.70;99.90;;;;;;5017588;28;20030;-73
2024/01/15 00:18:52;;;;;;;2.08;0.45;;;1.70;99.90;;;;;;5021146;28;20062;-74
2024/01/15 00:21:18;;;;;;;3.60;0.80;;;1.70;99.90;;;;;;5015122;28;20029;-74
2024/01/15 00:23:46;;;;;;;2.70;0.80;;;1.70;99.90;;;;;;5025624;28;20090;-74
2024/01/15 00:26:13;;;;;;;6.30;0.80;;;1.70;99.90;;;;;;5016798;28;20490;-73
2024/01/15 00:28:38;;;;;;;6.93;0.80;;;1.60;99.90;;;;;;5025422;28;20067;-73
2024/01/15 00:31:05;;;;;;;8.48;1.48;;;1.60;99.90;;;;;;5022504;28;20017;-74
2024/01/15 00:33:31;;;;;;;8.70;1.67;;;1.60;99.90;;;;;;5020365;28;20095;-71
2024/01/15 00:35:56;;;;;;;3.65;0.68;;;1.70;99.90;;;;;;5014103;28;20443;-74
2024/01/15 00:38:22;;;;;;;8.98;0.80;;;1.70;99.90;;;;;;5014359;28;20056;-74
2024/01/15 00:40:47;;;;;;;10.43;1.02;;;1.70;99.90;;;;;;5024835;28;20516;-73
2024/01/15 00:43:13;;;;;;;7.15;0.80;;;1.70;99.90;;;;;;5018388;28;20030;-76
2024/01/15 00:45:39;;;;;;;13.65;1.23;;;1.80;99.90;;;;;;5021768;28;20489;-76
2024/01/15 00:48:05;;;;;;;6.57;0.65;;;1.80;99.90;;;;;;5009171;28;20113;-76
2024/01/15 00:50:30;;;;;;;11.13;3.15;;;1.80;99.90;;;;;;5015539;28;20049;-72
2024/01/15 00:52:56;;;;;;;10.75;1.23;;;1.90;99.90;;;;;;5012215;28;20037;-74
2024/01/15 00:55:22;;;;;;;5.07;0.93;;;2.00;99.90;;;;;;5016968;28;20041;-73
2024/01/15 00:57:47;;;;;;;10.70;0.85;;;2.00;99.90;;;;;;5015741;28;20034;-74
2024/01/15 01:00:13;;;;;;;3.72;0.20;;;2.00;99.90;;;;;;5015657;28;20044;-74
2024/01/15 01:02:39;;;;;;;9.82;0.88;;;2.00;99.90;;;;;;5025937;28;20099;-73
2024/01/15 01:05:05;;;;;;;15.25;2.22;;;2.00;99.90;;;;;;5011667;28;20061;-74
2024/01/15 01:07:30;;;;;;;11.38;1.15;;;2.00;99.90;;;;;;5013772;28;20045;-74
2024/01/15 01:09:56;;;;;;;4.50;0.98;;;2.00;99.90;;;;;;5021411;28;20029;-73
2024/01/15 01:12:21;;;;;;;4.53;0.90;;;2.00;99.90;;;;;;5009623;28;20820;-73
2024/01/15 01:14:47;;;;;;;7.53;1.17;;;2.00;99.90;;;;;;5017983;28;20503;-73
2024/01/15 01:17:12;;;;;;;7.10;0.90;;;2.00;99.90;;;;;;5019181;28;20026;-74
2024/01/15 01:19:38;;;;;;;5.82;0.82;;;2.00;99.90;;;;;;5025529;28;20127;-74
2024/01/15 01:22:04;;;;;;;5.68;0.68;;;2.00;99.90;;;;;;5024722;28;20033;-74
2024/01/15 01:24:29;;;;;;;11.52;1.40;;;2.00;99.90;;;;;;5006866;28;20100;-74
2024/01/15 01:26:55;;;;;;;9.07;0.85;;;2.00;99.90;;;;;;5018259;28;20608;-74
2024/01/15 01:29:20;;;;;;;5.85;0.40;;;2.00;99.90;;;;;;5015825;28;20085;-74
2024/01/15 01:31:46;;;;;;;5.38;0.57;;;2.00;99.90;;;;;;5016719;28;20049;-74
2024/01/15 01:34:15;;;;;;;8.95;1.05;;;1.90;99.90;;;;;;5019283;28;20033;-74
2024/01/15 01:36:40;;;;;;;5.75;1.00;;;1.90;99.90;;;;;;5024096;28;20044;-74
2024/01/15 01:39:06;;;;;;;4.50;0.70;;;2.00;99.90;;;;;;5022186;28;20030;-74
2024/01/15 01:41:32;;;;;;;6.35;0.63;;;2.00;99.90;;;;;;5027204;28;20030;-73
2024/01/15 01:43:57;;;;;;;5.43;1.35;;;2.10;99.90;;;;;;5016523;28;20041;-77
2024/01/15 01:46:25;;;;;;;7.88;0.70;;;2.10;99.90;;;;;;5008427;28;20128;-74
2024/01/15 01:48:52;;;;;;;3.33;0.50;;;2.10;99.90;;;;;;5015723;28;20559;-73
2024/01/15 01:51:18;;;;;;;14.85;1.08;;;2.00;99.90;;;;;;5021126;28;20049;-76
2024/01/15 01:53:45;;;;;;;11.98;1.05;;;2.10;99.90;;;;;;5021315;28;20049;-74
2024/01/15 01:56:11;;;;;;;4.90;0.63;;;2.00;99.90;;;;;;5010067;28;20050;-75
2024/01/15 01:58:37;;;;;;;1.42;0.55;;;2.00;99.90;;;;;;5024480;28;20120;-76
2024/01/15 02:01:03;;;;;;;10.70;1.00;;;2.10;99.90;;;;;;5020417;28;20125;-76
2024/01/15 02:03:30;;;;;;;9.68;0.77;;;2.10;99.90;;;;;;5007010;28;20034;-73
2024/01/15 02:05:56;;;;;;;5.18;0.35;;;2.10;99.90;;;;;;5011378;28;20034;-73
2024/01/15 02:08:22;;;;;;;4.28;0.63;;;2.10;99.90;;;;;;5037382;28;20119;-73
2024/01/15 02:10:47;;;;;;;10.45;0.90;;;2.10;99.90;;;;;;5033643;28;20128;-73
2024/01/15 02:13:13;;;;;;;8.45;1.17;;;2.10;99.90;;;;;;5013465;28;20041;-74
2024/01/15 02:15:39;;;;;;;5.57;0.68;;;2.00;99.90;;;;;;5009619;28;20038;-73
2024/01/15 02:18:07;;;;;;;5.05;1.05;;;2.00;99.90;;;;;;5029290;28;20041;-74
2024/01/15 02:20:33;;;;;;;6.15;0.82;;;2.10;99.90;;;;;;5034105;28;20084;-74
2024/01/15 02:23:11;;;;;;;5.55;0.82;;;2.00;99.90;;;;;;5023723;28;20029;-76
2024/01/15 02:25:46;;;;;;;6.32;0.52;;;2.00;99.90;;;;;;5023401;28;20454;-74
2024/01/15 02:28:13;;;;;;;2.47;0.22;;;1.90;99.90;;;;;;5015548;28;20122;-72
2024/01/15 02:30:40;;;;;;;6.90;0.40;;;2.00;99.90;;;;;;5018931;28;20175;-73
2024/01/15 02:33:07;;;;;;;5.90;0.20;;;1.90;99.90;;;;;;5013968;28;20105;-74
2024/01/15 02:35:33;;;;;;;4.03;0.45;;;1.80;99.90;;;;;;5004440;28;20124;-74
2024/01/15 02:37:59;;;;;;;1.67;0.57;;;1.90;99.90;;;;;;5018900;28;20191;-76
2024/01/15 02:40:25;;;;;;;4.18;1.08;;;2.00;99.90;;;;;;5026139;28;20499;-74
2024/01/15 02:42:50;;;;;;;4.90;0.75;;;2.10;99.90;;;;;;5023330;28;20046;-74
2024/01/15 02:45:17;;;;;;;1.85;0.22;;;2.20;99.90;;;;;;5014501;28;20049;-72
2024/01/15 02:47:42;;;;;;;2.38;0.45;;;2.30;99.90;;;;;;5026193;28;20038;-74
2024/01/15 02:50:08;;;;;;;5.13;0.75;;;2.30;99.90;;;;;;5019218;28;20040;-73
2024/01/15 02:52:34;;;;;;;3.88;0.40;;;2.30;99.90;;;;;;5020674;28;20524;-74
2024/01/15 02:54:59;;;;;;;3.22;0.15;;;2.30;99.90;;;;;;5023458;28;20029;-75
2024/01/15 02:57:25;;;;;;;3.90;0.50;;;2.30;99.90;;;;;;5025973;28;20037;-74
2024/01/15 02:59:50;;;;;;;2.13;0.20;;;2.20;99.90;;;;;;5010942;28;20034;-73
2024/01/15 03:02:16;;;;;;;3.80;0.50;;;2.10;99.90;;;;;;5020674;28;20088;-76
2024/01/15 03:04:45;;;;;;;2.08;0.20;;;2.10;99.90;;;;;;5027213;28;20405;-71
2024/01/15 03:07:11;;;;;;;4.53;0.20;;;2.00;99.90;;;;;;5021208;28;20033;-76
2024/01/15 03:09:36;;;;;;;1.27;0.20;;;2.00;99.90;;;;;;5026332;28;20053;-75
2024/01/15 03:12:02;;;;;;;3.22;0.60;;;2.00;99.90;;;;;;5026912;28;20041;-73
2024/01/15 03:14:28;;;;;;;0.90;0.20;;;1.90;99.90;;;;;;5013247;28;20032;-74
2024/01/15 03:16:54;;;;;;;3.00;0.25;;;1.90;99.90;;;;;;5011543;28;20069;-74
2024/01/15 03:19:19;;;;;;;0.90;0.10;;;2.00;99.90;;;;;;5010382;28;20022;-75
2024/01/15 03:21:45;;;;;;;2.05;0.10;;;2.00;99.90;;;;;;5011890;28;20108;-72
2024/01/15 03:24:10;;;;;;;3.10;0.30;;;2.10;99.90;;;;;;5007587;28;20474;-74
2024/01/15 03:26:36;;;;;;;0.47;0.17;;;2.10;99.90;;;;;;5024957;28;20042;-73
2024/01/15 03:29:02;;;;;;;2.28;0.10;;;2.10;99.90;;;;;;5018456;28;20038;-74
2024/01/15 03:31:27;;;;;;;3.05;0.45;;;2.00;99.90;;;;;;5022372;28;20025;-74
2024/01/15 03:33:53;;;;;;;3.65;0.68;;;2.00;99.90;;;;;;5014454;28;20034;-73
2024/01/15 03:36:18;;;;;;;1.77;0.30;;;2.00;99.90;;;;;;5015054;28;20065;-74
2024/01/15 03:38:44;;;;;;;3.15;0.52;;;1.90;99.90;;;;;;5019468;28;20038;-72
2024/01/15 03:41:10;;;;;;;3.35;0.73;;;1.90;99.90;;;;;;5019709;28;20427;-71
2024/01/15 03:43:35;;;;;;;4.18;0.45;;;1.90;99.90;;;;;;5019782;28;20053;-74
2024/01/15 03:46:02;;;;;;;3.20;0.28;;;1.90;99.90;;;;;;5022524;28;20034;-73
2024/01/15 03:48:27;;;;;;;2.15;0.40;;;1.90;99.90;;;;;;5022065;28;20037;-73
2024/01/15 03:50:53;;;;;;;2.28;0.20;;;1.90;99.90;;;;;;5010355;28;20029;-74
2024/01/15 03:53:19;;;;;;;2.40;0.32;;;2.00;99.90;;;;;;5009971;28;20520;-75
2024/01/15 03:55:44;;;;;;;6.28;0.80;;;2.00;99.90;;;;;;5020801;28;20516;-74
2024/01/15 03:58:10;;;;;;;3.20;0.85;;;2.10;99.90;;;;;;5009225;28;20057;-71
2024/01/15 04:00:35;;;;;;;2.63;0.32;;;2.00;99.90;;;;;;5017515;28;20084;-76
2024/01/15 04:03:01;;;;;;;5.35;0.50;;;2.10;99.90;;;;;;5017355;28;20384;-76
2024/01/15 04:05:27;;;;;;;12.98;1.20;;;2.10;99.90;;;;;;5019726;28;20113;-74
2024/01/15 04:07:52;;;;;;;7.95;1.02;;;2.10;99.90;;;;;;5019092;28;20125;-72
2024/01/15 04:10:18;;;;;;;3.33;0.70;;;2.10;99.90;;;;;;5008876;28;20099;-71
2024/01/15 04:12:46;;;;;;;2.03;0.20;;;2.10;99.90;;;;;;5027361;28;20056;-74
2024/01/15 04:15:12;;;;;;;4.78;0.60;;;2.10;99.90;;;;;;5022588;28;20493;-74
2024/01/15 04:17:38;;;;;;;3.63;0.25;;;2.10;99.90;;;;;;5028489;28;20409;-71
2024/01/15 04:20:04;;;;;;;3.13;0.75;;;2.00;99.90;;;;;;5018318;28;20034;-76
2024/01/15 04:22:30;;;;;;;9.20;0.60;;;2.00;99.90;;;;;;5012860;28;20064;-71
2024/01/15 04:24:55;;;;;;;1.42;0.40;;;2.00;99.90;;;;;;5023804;28;20060;-75
2024/01/15 04:27:21;;;;;;;2.40;0.55;;;1.90;99.90;;;;;;5017899;28;20068;-73
2024/01/15 04:29:47;;;;;;;4.35;0.63;;;1.90;99.90;;;;;;5015429;28;20148;-75
2024/01/15 04:32:12;;;;;;;5.45;1.15;;;1.90;99.90;;;;;;5020619;28;20034;-73
2024/01/15 04:34:38;;;;;;;4.13;0.30;;;1.90;99.90;;;;;;5015797;28;20034;-74
2024/01/15 04:37:03;;;;;;;4.20;0.47;;;1.90;99.90;;;;;;5017209;28;20052;-74
2024/01/15 04:39:29;;;;;;;9.25;1.10;;;1.90;99.90;;;;;;5019546;28;20112;-75
2024/01/15 04:41:55;;;;;;;6.65;1.38;;;1.90;99.90;;;;;;5038899;28;20044;-74
2024/01/15 04:44:20;;;;;;;1.70;0.30;;;1.90;99.90;;;;;;5022006;28;20091;-74
2024/01/15 04:46:46;;;;;;;4.63;0.47;;;1.90;99.90;;;;;;5024035;28;20084;-75
2024/01/15 04:49:12;;;;;;;2.70;0.50;;;1.90;99.90;;;;;;5014957;28;20040;-76
2024/01/15 04:51:37;;;;;;;1.52;0.30;;;1.90;99.90;;;;;;5024869;28;20635;-74
2024/01/15 04:54:03;;;;;;;3.15;0.17;;;2.00;99.90;;;;;;5024202;28;20063;-74
2024/01/15 04:56:29;;;;;;;0.65;0.15;;;2.10;99.90;;;;;;5015680;28;20026;-74
2024/01/15 04:58:54;;;;;;;2.20;0.20;;;2.10;99.90;;;;;;5025239;28;20243;-73
2024/01/15 05:01:20;;;;;;;2.42;0.25;;;2.10;99.90;;;;;;5018433;28;20046;-75
2024/01/15 05:03:46;;;;;;;2.63;0.38;;;2.20;99.90;;;;;;5022609;28;20042;-76
2024/01/15 05:06:11;;;;;;;3.00;0.30;;;2.20;99.90;;;;;;5026884;28;20041;-74
2024/01/15 05:08:37;;;;;;;1.15;0.30;;;2.20;99.90;;;;;;5039896;28;20141;-75
2024/01/15 05:11:03;;;;;;;3.05;0.30;;;2.20;99.90;;;;;;5014547;28;20050;-75
2024/01/15 05:13:28;;;;;;;1.70;0.20;;;2.10;99.90;;;;;;5009601;28;20108;-74
2024/01/15 05:15:54;;;;;;;3.72;0.50;;;2.10;99.90;;;;;;5021940;28;20618;-73
2024/01/15 05:18:19;;;;;;;5.40;0.28;;;2.10;99.90;;;;;;5023339;28;20076;-77
2024/01/15 05:20:45;;;;;;;2.42;0.77;;;2.00;99.90;;;;;;5018991;28;20033;-75
2024/01/15 05:23:10;;;;;;;5.15;0.20;;;2.00;99.90;;;;;;5023143;28;20041;-74
2024/01/15 05:25:36;;;;;;;1.92;0.30;;;1.90;99.90;;;;;;5018049;28;20073;-73
2024/01/15 05:28:02;;;;;;;4.72;1.08;;;1.90;99.90;;;;;;5014530;28;20042;-75
2024/01/15 05:30:28;;;;;;;2.97;0.43;;;1.80;99.90;;;;;;5013988;28;20033;-73
2024/01/15 05:32:54;;;;;;;2.33;0.63;;;1.80;99.90;;;;;;5016032;28;20192;-72
2024/01/15 05:35:19;;;;;;;2.55;0.40;;;1.70;99.90;;;;;;5019913;28;20545;-76
2024/01/15 05:37:45;;;;;;;5.68;0.20;;;1.70;99.90;;;;;;5010502;28;20045;-73
2024/01/15 05:40:12;;;;;;;6.13;0.93;;;1.70;99.90;;;;;;5022022;28;20025;-73
2024/01/15 05:42:39;;;;;;;3.05;0.28;;;1.70;99.90;;;;;;5019677;28;20041;-73
2024/01/15 05:45:05;;;;;;;4.85;0.20;;;1.70;99.90;;;;;;5010996;28;20071;-73
2024/01/15 05:47:30;;;;;;;5.68;0.30;;;1.80;99.90;;;;;;5015054;28;20149;-73
2024/01/15 05:49:56;;;;;;;1.63;0.28;;;1.80;99.90;;;;;;5010325;28;20042;-73
2024/01/15 05:52:22;;;;;;;4.18;0.32;;;1.80;99.90;;;;;;5020798;28;20041;-73
2024/01/15 05:54:49;;;;;;;1.15;0.30;;;1.90;99.90;;;;;;5010458;28;20041;-73
2024/01/15 05:57:15;;;;;;;10.60;1.25;;;1.90;99.90;;;;;;5020485;28;20021;-73
2024/01/15 05:59:40;;;;;;;1.83;0.55;;;2.00;99.90;;;;;;5013161;28;20398;-73
2024/01/15 06:02:06;;;;;;;2.58;0.70;;;2.00;99.90;;;;;;5021255;28;20048;-74
2024/01/15 06:04:31;;;;;;;5.13;0.40;;;2.00;99.90;;;;;;5024106;28;20044;-74
2024/01/15 06:06:57;;;;;;;2.75;0.30;;;2.00;99.90;;;;;;5028898;28;20041;-71
2024/01/15 06:09:23;;;;;;;2.78;0.20;;;2.00;99.90;;;;;;5024396;28;20063;-72
2024/01/15 06:11:48;;;;;;;6.65;1.23;;;2.00;99.90;;;;;;5009321;28;20061;-72
2024/01/15 06:14:14;;;;;;;2.47;0.30;;;2.00;99.90;;;;;;5017602;28;20121;-72
2024/01/15 06:16:39;;;;;;;2.60;0.20;;;2.00;99.90;;;;;;5028436;28;20059;-75
2024/01/15 06:19:05;;;;;;;6.38;0.40;;;2.00;99.90;;;;;;5018449;28;20091;-74
2024/01/15 06:21:30;;;;;;;4.28;0.82;;;2.00;99.90;;;;;;5014907;28;20512;-72
2024/01/15 06:23:56;;;;;;;2.83;0.30;;;2.00;99.90;;;;;;5012738;28;20033;-75
2024/01/15 06:26:22;;;;;;;2.83;0.30;;;1.90;99.90;;;;;;5027825;28;20044;-74
2024/01/15 06:28:48;;;;;;;5.57;1.00;;;2.00;99.90;;;;;;5022442;28;20129;-75
2024/01/15 06:31:14;;;;;;;1.42;0.20;;;2.00;99.90;;;;;;5022138;28;20108;-73
2024/01/15 06:33:40;;;;;;;3.15;0.30;;;2.00;99.90;;;;;;5024068;28;20068;-78
2024/01/15 06:36:06;;;;;;;3.05;0.75;;;2.10;99.90;;;;;;5030509;28;20116;-75
2024/01/15 06:38:31;;;;;;;5.25;0.68;;;2.00;99.90;;;;;;5026682;28;20450;-75
2024/01/15 06:40:57;;;;;;;2.42;0.28;;;2.00;99.90;;;;;;5029850;28;20522;-76
2024/01/15 06:43:22;;;;;;;2.67;0.25;;;1.90;99.90;;;;;;5010293;28;20064;-77
2024/01/15 06:45:48;;;;;;;3.50;0.25;;;1.90;99.90;;;;;;5029442;28;20037;-76
2024/01/15 06:48:16;;;;;;;1.27;0.50;;;1.80;99.90;;;;;;5018448;28;20042;-73
2024/01/15 06:50:44;;;;;;;4.43;0.75;;;1.80;99.90;;;;;;5017409;28;20041;-75
2024/01/15 06:53:10;;;;;;;4.22;0.73;;;1.70;99.90;;;;;;5021744;28;20045;-72
2024/01/15 06:55:35;;;;;;;8.95;0.70;;;1.70;99.90;;;;;;5021537;28;20057;-76
2024/01/15 06:58:01;;;;;;;8.40;0.60;;;1.60;99.90;;;;;;5029143;28;20108;-74
2024/01/15 07:00:27;;;;;;;2.45;0.20;;;1.70;99.90;;;;;;5016624;28;20041;-77
2024/01/15 07:02:53;;;;;;;3.22;0.30;;;1.70;99.90;;;;;;5008480;28;20037;-76
2024/01/15 07:05:20;;;;;;;7.80;0.63;;;1.80;99.90;;;;;;5022329;28;20033;-76
2024/01/15 07:07:47;;;;;;;3.03;0.20;;;1.80;99.90;;;;;;5036971;28;20489;-75
2024/01/15 07:10:13;;;;;;;4.43;0.32;;;1.80;99.90;;;;;;5025523;28;20492;-74
2024/01/15 07:12:39;;;;;;;2.55;0.20;;;1.80;99.90;;;;;;5015101;28;20497;-77
2024/01/15 07:15:06;;;;;;;2.78;0.52;;;1.80;99.90;;;;;;5009017;28;20037;-74
2024/01/15 07:17:32;;;;;;;2.85;0.30;;;1.80;99.90;;;;;;5011474;28;20490;-71
2024/01/15 07:19:58;;;;;;;5.00;0.40;;;1.80;99.90;;;;;;5024270;28;20040;-75
2024/01/15 07:22:24;;;;;;;6.72;0.35;;;1.80;99.90;;;;;;5024543;28;20039;-74
2024/01/15 07:24:49;;;;;;;3.63;0.43;;;1.80;99.90;;;;;;5022853;28;20050;-75
2024/01/15 07:27:15;;;;;;;3.90;0.40;;;1.80;99.90;;;;;;5017207;28;20038;-76
2024/01/15 07:29:42;;;;;;;4.13;0.80;;;1.80;99.90;;;;;;5026795;28;20370;-77
2024/01/15 07:32:08;;;;;;;11.02;1.77;;;1.80;99.90;;;;;;5027506;28;20391;-76
2024/01/15 07:34:34;;;;;;;3.08;0.45;;;1.70;99.90;;;;;;5014964;28;20037;-77
2024/01/15 07:36:59;;;;;;;8.80;2.20;;;1.70;99.90;;;;;;5026214;28;20812;-74
2024/01/15 07:39:25;;;;;;;5.47;0.32;;;1.70;99.90;;;;;;5026367;28;20113;-74
2024/01/15 07:41:51;;;;;;;4.60;0.50;;;1.60;99.90;;;;;;5023878;28;20057;-76
2024/01/15 07:44:17;;;;;;;3.13;1.00;;;1.60;99.90;;;;;;5023563;28;20040;-73
2024/01/15 07:46:46;;;;;;;2.25;0.35;;;1.60;99.90;;;;;;5028432;28;20030;-75
2024/01/15 07:49:13;;;;;;;4.82;0.60;;;1.70;99.90;;;;;;5016062;28;20358;-74
2024/01/15 07:51:40;;;;;;;2.97;0.63;;;1.70;99.90;;;;;;5017850;28;20046;-74
2024/01/15 07:54:06;;;;;;;2.90;0.38;;;1.70;99.90;;;;;;5023638;28;20072;-70
2024/01/15 07:56:32;;;;;;;4.50;0.85;;;1.70;99.90;;;;;;5007210;28;20112;-76
2024/01/15 07:58:57;;;;;;;6.70;0.63;;;1.60;99.90;;;;;;5018703;28;20486;-76
2024/01/15 08:01:23;;;;;;;4.50;0.35;;;1.60;99.90;;;;;;5019461;28;20483;-73
2024/01/15 08:03:48;;;;;;;6.00;1.02;;;1.70;99.90;;;;;;5021066;28;20758;-72
2024/01/15 08:06:14;;;;;;;2.92;0.40;;;1.60;99.90;;;;;;5023569;28;20042;-74
2024/01/15 08:08:40;;;;;;;4.57;0.17;;;1.60;99.90;;;;;;5027184;28;20037;-73
2024/01/15 08:11:05;;;;;;;4.43;0.45;;;1.60;99.90;;;;;;5019235;28;20399;-73
2024/01/15 08:13:31;;;;;;;5.05;1.17;;;1.60;99.90;;;;;;5017927;28;20076;-74
2024/01/15 08:15:57;;;;;;;1.80;0.40;;;1.60;99.90;;;;;;5023399;28;20390;-73
2024/01/15 08:18:22;;;;;;;7.88;0.25;;;1.50;99.90;;;;;;5019558;28;20478;-74
2024/01/15 08:20:48;;;;;;;2.83;0.38;;;1.50;99.90;;;;;;5021210;28;20041;-76
2024/01/15 08:23:13;;;;;;;1.33;0.40;;;1.50;99.90;;;;;;5023478;28;20560;-73
2024/01/15 08:25:39;;;;;;;1.67;0.52;;;1.50;99.90;;;;;;5018312;28;20057;-74
2024/01/15 08:28:05;;;;;;;2.65;0.22;;;1.50;99.90;;;;;;5023426;28;20034;-74
2024/01/15 08:30:30;;;;;;;8.95;0.43;;;1.50;99.90;;;;;;5021471;28;20034;-74
2024/01/15 08:32:57;;;;;;;3.53;0.43;;;1.50;99.90;;;;;;5022711;28;20613;-74
2024/01/15 08:35:22;;;;;;;9.63;1.15;;;1.50;99.90;;;;;;5013348;28;20041;-77
2024/01/15 08:37:49;;;;;;;1.80;0.40;;;1.50;99.90;;;;;;5021887;28;20042;-74
2024/01/15 08:40:15;;;;;;;3.25;0.50;;;1.50;99.90;;;;;;5027303;28;20033;-75
2024/01/15 08:42:41;;;;;;;2.47;0.55;;;1.50;99.90;;;;;;5020693;28;20048;-76
2024/01/15 08:45:07;;;;;;;3.33;0.50;;;1.50;99.90;;;;;;5010647;28;20037;-75
2024/01/15 08:47:33;;;;;;;5.72;0.43;;;1.40;99.90;;;;;;5012441;28;20072;-72
2024/01/15 08:49:59;;;;;;;5.82;0.90;;;1.40;99.90;;;;;;5014421;28;20038;-73
2024/01/15 08:52:24;;;;;;;5.75;1.40;;;1.40;99.90;;;;;;5010848;28;20042;-74
2024/01/15 08:54:50;;;;;;;7.55;0.40;;;1.40;99.90;;;;;;5023241;28;20037;-71
2024/01/15 08:57:16;;;;;;;5.35;0.82;;;1.30;99.90;;;;;;5018880;28;20482;-75
2024/01/15 08:59:41;;;;;;;9.73;0.63;;;1.30;99.90;;;;;;5005270;28;20426;-71
2024/01/15 09:02:07;;;;;;;7.75;0.90;;;1.40;99.90;;;;;;5022051;28;20047;-71
2024/01/15 09:04:33;;;;;;;4.28;1.05;;;1.60;99.90;;;;;;5014462;28;20057;-75
2024/01/15 09:06:59;;;;;;;7.65;0.90;;;1.70;99.90;;;;;;5020080;28;20029;-76
2024/01/15 09:09:24;;;;;;;2.22;0.55;;;1.80;99.90;;;;;;5024028;28;20112;-74
2024/01/15 09:11:51;;;;;;;11.32;1.98;;;1.80;99.90;;;;;;5008133;28;20041;-74
2024/01/15 09:14:17;;;;;;;7.05;0.47;;;1.90;99.90;;;;;;5008562;28;20029;-74
2024/01/15 09:16:42;;;;;;;13.02;1.60;;;2.00;99.90;;;;;;5019444;28;20398;-74
2024/01/15 09:19:08;;;;;;;4.80;0.80;;;2.10;99.90;;;;;;5024710;28;20025;-74
2024/01/15 09:21:34;;;;;;;3.13;0.90;;;2.20;99.90;;;;;;5016019;28;20032;-76
2024/01/15 09:23:59;;;;;;;6.97;0.50;;;2.20;99.90;;;;;;5013135;28;20045;-74
2024/01/15 09:26:25;;;;;;;4.05;0.50;;;2.20;99.90;;;;;;5007961;28;20034;-74
2024/01/15 09:28:51;;;;;;;5.45;0.70;;;2.10;99.90;;;;;;5021132;28;20041;-71
2024/01/15 09:31:17;;;;;;;3.17;0.40;;;2.10;99.90;;;;;;5013058;28;20032;-73
2024/01/15 09:33:43;;;;;;;3.03;0.65;;;2.10;99.90;;;;;;5016234;28;20038;-73
2024/01/15 09:36:09;;;;;;;5.90;0.77;;;2.10;99.90;;;;;;5012726;28;20038;-73
2024/01/15 09:38:35;;;;;;;8.15;1.27;;;2.10;99.90;;;;;;5008675;28;20041;-71
2024/01/15 09:41:00;;;;;;;8.82;1.15;;;2.10;99.90;;;;;;5018286;28;20073;-73
2024/01/15 09:43:26;;;;;;;2.38;0.43;;;2.00;99.90;;;;;;5012725;28;20117;-75
2024/01/15 09:45:53;;;;;;;5.35;0.60;;;2.00;99.90;;;;;;5006054;28;20048;-75
2024/01/15 09:48:19;;;;;;;4.20;0.40;;;2.00;99.90;;;;;;5015434;28;20654;-73
2024/01/15 09:50:45;;;;;;;3.22;0.47;;;1.90;99.90;;;;;;5008055;28;20125;-72
2024/01/15 09:53:14;;;;;;;5.90;0.13;;;1.80;99.90;;;;;;5010780;28;20054;-74
2024/01/15 09:55:41;;;;;;;3.72;0.28;;;1.80;99.90;;;;;;5009644;28;20560;-74
2024/01/15 09:58:07;;;;;;;4.50;0.60;;;1.90;99.90;;;;;;5008315;28;20069;-76
2024/01/15 10:00:36;;;;;;;5.97;0.90;;;2.00;99.90;;;;;;5007415;28;20054;-76
2024/01/15 10:03:03;;;;;;;5.47;0.70;;;2.00;99.90;;;;;;5007448;28;20039;-73
2024/01/15 10:05:29;;;;;;;4.75;0.55;;;2.00;99.90;;;;;;5013555;28;20037;-75
2024/01/15 10:07:57;;;;;;;5.13;0.45;;;2.00;99.90;;;;;;5022645;28;20071;-72
2024/01/15 10:10:23;;;;;;;4.97;0.60;;;2.00;99.90;;;;;;5016546;28;20111;-75
2024/01/15 10:12:49;;;;;;;7.57;0.68;;;2.10;99.90;;;;;;5022832;28;20053;-71
2024/01/15 10:15:16;;;;;;;7.40;0.70;;;2.30;99.90;;;;;;5018187;28;20037;-75
2024/01/15 10:17:41;;;;;;;8.73;1.00;;;2.40;99.90;;;;;;5018664;28;20528;-76
2024/01/15 10:20:11;;;;;;;6.25;0.35;;;2.50;99.90;;;;;;5009802;28;20053;-73
2024/01/15 10:22:42;;;;;;;4.18;0.40;;;2.70;99.90;;;;;;5011048;28;20391;-70
2024/01/15 10:25:11;;;;;;;7.57;1.23;;;3.00;99.90;;;;;;5018517;28;20040;-74
2024/01/15 10:27:36;;;;;;;11.27;1.65;;;3.20;99.90;;;;;;5014685;28;20034;-71
2024/01/15 10:30:02;;;;;;;3.63;0.43;;;3.30;99.90;;;;;;5016864;28;20029;-75
2024/01/15 10:32:28;;;;;;;10.40;1.15;;;3.30;99.90;;;;;;5007927;28;20089;-73
2024/01/15 10:34:55;;;;;;;10.45;1.25;;;3.40;99.90;;;;;;5008947;28;20030;-72
2024/01/15 10:37:20;;;;;;;5.60;1.30;;;3.30;99.90;;;;;;5017330;28;20030;-73
2024/01/15 10:39:46;;;;;;;4.55;0.47;;;3.20;99.90;;;;;;5014269;28;20045;-72
2024/01/15 10:42:12;;;;;;;15.60;1.58;;;3.00;99.90;;;;;;5021988;28;20033;-71
2024/01/15 10:44:38;;;;;;;2.80;0.50;;;3.00;99.90;;;;;;5015054;28;20045;-74
2024/01/15 10:47:04;;;;;;;3.03;0.68;;;2.90;99.90;;;;;;5009217;28;20057;-73
2024/01/15 10:49:30;;;;;;;0.82;0.20;;;3.00;99.90;;;;;;5011671;28;20045;-75
2024/01/15 10:51:56;;;;;;;2.03;0.30;;;3.10;99.90;;;;;;5015927;28;20034;-75
2024/01/15 10:54:23;;;;;;;7.05;1.30;;;3.10;99.90;;;;;;5012737;28;20026;-74
2024/01/15 10:56:51;;;;;;;2.90;0.40;;;3.10;99.90;;;;;;5016182;28;20150;-74
2024/01/15 10:59:18;;;;;;;7.38;0.47;;;3.10;99.90;;;;;;5016914;28;20041;-74
2024/01/15 11:01:45;;;;;;;4.07;1.00;;;3.10;99.90;;;;;;5021609;28;20034;-75
2024/01/15 11:04:10;;;;;;;6.22;0.52;;;3.00;99.90;;;;;;5016427;28;20513;-74
2024/01/15 11:06:44;;;;;;;9.05;0.73;;;2.90;99.90;;;;;;5015205;28;20033;-74
2024/01/15 11:09:11;;;;;;;3.03;0.88;;;2.80;99.90;;;;;;5021643;28;20490;-74
2024/01/15 11:11:41;;;;;;;5.90;0.77;;;2.70;99.90;;;;;;5021607;28;20785;-76
2024/01/15 11:14:07;;;;;;;2.63;0.20;;;2.60;99.90;;;;;;5020425;28;20549;-75
2024/01/15 11:17:05;;;;;;;7.97;0.50;;;2.60;99.90;;;;;;5014848;28;20029;-74
2024/01/15 11:19:47;;;;;;;3.20;0.60;;;2.50;99.90;;;;;;5023226;28;20029;-73
2024/01/15 11:22:32;;;;;;;3.67;0.35;;;2.50;99.90;;;;;;5019016;28;20026;-74
2024/01/15 11:25:13;;;;;;;3.70;0.43;;;2.60;99.90;;;;;;5023837;28;20100;-76
2024/01/15 11:27:42;;;;;;;2.63;0.45;;;2.70;99.90;;;;;;5016404;28;20034;-74
2024/01/15 11:30:12;;;;;;;1.75;0.35;;;2.70;99.90;;;;;;5022231;28;20030;-76
2024/01/15 11:32:42;;;;;;;2.38;0.68;;;2.60;99.90;;;;;;5015679;28;20042;-75
2024/01/15 11:35:09;;;;;;;13.83;1.53;;;2.60;99.90;;;;;;5017109;28;20041;-75
2024/01/15 11:37:56;;;;;;;7.32;0.30;;;2.50;99.90;;;;;;5021420;28;20068;-73
2024/01/15 11:40:43;;;;;;;0.70;0.20;;;2.40;99.90;;;;;;5018003;28;20043;-73
2024/01/15 11:43:09;;;;;;;3.83;0.82;;;2.40;99.90;;;;;;5019427;28;20029;-74
2024/01/15 11:45:35;;;;;;;8.63;0.50;;;2.30;99.90;;;;;;5021261;28;20034;-74
2024/01/15 11:48:15;;;;;;;3.33;0.28;;;2.30;99.90;;;;;;5020367;28;20037;-75
2024/01/15 11:50:51;;;;;;;2.33;0.10;;;2.30;99.90;;;;;;5015736;28;20048;-74
2024/01/15 11:53:43;;;;;;;2.05;0.75;;;2.30;99.90;;;;;;5014681;28;20449;-75
2024/01/15 11:56:16;;;;;;;4.78;0.32;;;2.30;99.90;;;;;;5017300;28;20038;-76
2024/01/15 11:58:43;;;;;;;3.33;0.30;;;2.30;99.90;;;;;;5014374;28;20386;-73
2024/01/15 12:01:10;;;;;;;7.10;1.10;;;2.20;99.90;;;;;;5027156;28;20056;-74
2024/01/15 12:03:36;;;;;;;4.30;0.35;;;2.30;99.90;;;;;;5019571;28;20038;-74
2024/01/15 12:06:01;;;;;;;3.85;0.43;;;2.30;99.90;;;;;;5017131;28;20076;-74
2024/01/15 12:08:27;;;;;;;5.88;0.43;;;2.30;99.90;;;;;;5022364;28;20029;-75
2024/01/15 12:10:53;;;;;;;2.08;0.22;;;2.40;99.90;;;;;;5024112;28;20037;-73
2024/01/15 12:13:20;;;;;;;3.10;0.60;;;2.40;99.90;;;;;;5013761;28;20139;-72
2024/01/15 12:15:47;;;;;;;10.60;0.57;;;2.50;99.90;;;;;;5026905;28;20445;-76
2024/01/15 12:18:14;;;;;;;2.30;0.25;;;2.60;99.90;;;;;;5021936;28;20042;-73
2024/01/15 12:20:42;;;;;;;12.75;1.08;;;2.70;99.90;;;;;;5012835;28;20513;-74
2024/01/15 12:23:08;;;;;;;3.83;1.00;;;2.70;99.90;;;;;;5016814;28;20101;-76
2024/01/15 12:25:34;;;;;;;4.15;0.55;;;2.80;99.90;;;;;;5023409;28;20980;-73
2024/01/15 12:28:01;;;;;;;5.90;1.10;;;2.80;99.90;;;;;;5013901;28;20044;-72
2024/01/15 12:30:27;;;;;;;6.93;1.13;;;2.90;99.90;;;;;;5017288;28;20037;-75
2024/01/15 12:32:53;;;;;;;7.07;0.70;;;2.90;99.90;;;;;;5017686;28;20033;-76
2024/01/15 12:35:18;;;;;;;2.50;0.82;;;2.90;99.90;;;;;;5009765;28;20513;-75
2024/01/15 12:37:47;;;;;;;2.67;0.43;;;3.00;99.90;;;;;;5014891;28;20599;-74
2024/01/15 12:40:20;;;;;;;2.88;0.50;;;3.00;99.90;;;;;;5020432;28;20041;-72
2024/01/15 12:42:46;;;;;;;6.30;0.68;;;3.20;99.90;;;;;;5019924;28;20041;-74
2024/01/15 12:45:12;;;;;;;8.25;1.02;;;3.30;99.90;;;;;;5019381;28;20642;-74
2024/01/15 12:47:38;;;;;;;5.85;0.70;;;3.20;99.90;;;;;;5015116;28;20034;-74
2024/01/15 12:50:11;;;;;;;5.95;0.57;;;3.30;99.90;;;;;;5016498;28;20464;-75
2024/01/15 12:52:40;;;;;;;10.27;1.02;;;3.40;99.90;;;;;;5010427;28;20516;-74